CheckWX is a tool to help pilots better visualize weather data.  It is not intended as a substitute for an official pre-flight weather briefing.

13:40:32 UTC

KHHF METAR
Hemphill County Airport
Canadian, Texas, USA
Current

26 mins ago

KHHF 201315Z AUTO 18005KT 10SM CLR 27/17 A2988 RMK AO2 T02660165
Observed
Jul-20 @ 13:15 UTC
Wind
  • 180° at 5 KTS
Visibility
10 SM
Flight Rules
VFR
Cloud Levels
  • Clear skies
Temperature
27°C / 81°F
Dewpoint
17°C / 63°F
Heat Index
28°C / 82°F
Humidity
54%
Altimeter
29.88" Hg
Pressure
1011.82 hPa
Previous

46 mins ago

KHHF 201255Z AUTO 00000KT 10SM CLR 25/17 A2988 RMK AO2 T02500169
Observed
Jul-20 @ 12:55 UTC
Visibility
10 SM
Flight Rules
VFR
Cloud Levels
  • Clear skies
Temperature
25°C / 77°F
Dewpoint
17°C / 63°F
Humidity
61%
Altimeter
29.88" Hg
Pressure
1011.82 hPa
Previous

1 hour ago

KHHF 201235Z AUTO 16004KT 10SM CLR 24/16 A2988 RMK AO2 T02420162
Observed
Jul-20 @ 12:35 UTC
Wind
  • 160° at 4 KTS
Visibility
10 SM
Flight Rules
VFR
Cloud Levels
  • Clear skies
Temperature
24°C / 75°F
Dewpoint
16°C / 61°F
Humidity
61%
Altimeter
29.88" Hg
Pressure
1011.82 hPa